createdAt,value
2022-07-25T01:14:12.114Z,69.80
2022-07-25T01:15:16.851Z,69.80
2022-07-25T01:16:19.482Z,69.90
2022-07-25T01:17:22.843Z,70.10
2022-07-25T01:18:25.267Z,70.10
2022-07-25T01:19:28.657Z,70.40
2022-07-25T01:20:33.373Z,70.60
2022-07-25T01:21:39.628Z,70.50
2022-07-25T01:22:42.539Z,70.70
2022-07-25T01:23:45.981Z,70.60
2022-07-25T01:24:50.568Z,70.60
2022-07-25T01:25:56.388Z,70.70
2022-07-25T01:26:58.747Z,70.70
2022-07-25T01:28:02.126Z,70.70
2022-07-25T01:29:05.068Z,70.80
2022-07-25T01:30:12.052Z,70.90
2022-07-25T01:31:14.524Z,71.00
2022-07-25T01:32:17.891Z,71.20
2022-07-25T01:33:21.992Z,71.40
2022-07-25T01:34:25.299Z,71.40
2022-07-25T01:35:34.555Z,71.60
2022-07-25T01:36:40.326Z,71.70
2022-07-25T01:37:45.451Z,71.70
2022-07-25T01:38:49.566Z,71.70
2022-07-25T01:39:56.437Z,71.80
2022-07-25T01:40:59.723Z,71.80
2022-07-25T01:42:02.062Z,72.10
2022-07-25T01:43:08.057Z,72.30
2022-07-25T01:44:10.566Z,72.20
2022-07-25T01:45:14.705Z,72.30
2022-07-25T01:46:20.197Z,72.30
2022-07-25T01:47:26.101Z,72.20
2022-07-25T01:48:28.638Z,72.50
2022-07-25T01:49:32.025Z,72.90
2022-07-25T01:50:37.161Z,73.00
2022-07-25T01:51:40.683Z,72.80
2022-07-25T01:52:44.233Z,72.70
2022-07-25T01:53:49.801Z,72.80
2022-07-25T01:54:54.685Z,73.10
2022-07-25T01:55:58.202Z,73.20
2022-07-25T01:57:00.548Z,73.20
2022-07-25T01:58:04.293Z,73.10
2022-07-25T01:59:08.786Z,73.40
2022-07-25T02:00:15.516Z,73.50
2022-07-25T02:01:17.912Z,73.40
2022-07-25T02:02:25.002Z,73.40
2022-07-25T02:03:30.094Z,73.50
2022-07-25T02:04:34.503Z,73.70
2022-07-25T02:05:38.487Z,73.70
2022-07-25T02:06:42.507Z,73.60
2022-07-25T02:07:44.956Z,73.60
2022-07-25T02:08:48.347Z,73.60
2022-07-25T02:09:56.534Z,73.90
2022-07-25T02:11:01.555Z,74.00
2022-07-25T02:12:07.341Z,73.90
2022-07-25T02:13:09.669Z,74.10
2022-07-25T02:14:15.657Z,74.20
2022-07-25T02:15:18.148Z,74.10
2022-07-25T02:16:21.607Z,74.30
2022-07-25T02:17:34.269Z,74.20
2022-07-25T02:18:38.309Z,74.20
2022-07-25T02:19:44.600Z,74.10
2022-07-25T02:20:49.331Z,74.20
2022-07-25T02:21:52.749Z,74.30
2022-07-25T02:22:55.183Z,74.30
2022-07-25T02:23:58.471Z,74.40
2022-07-25T02:25:00.788Z,74.40
2022-07-25T02:26:04.230Z,74.40
2022-07-25T02:27:09.108Z,74.40
2022-07-25T02:28:12.465Z,74.50
2022-07-25T02:29:14.901Z,74.60
2022-07-25T02:30:18.327Z,74.50
2022-07-25T02:31:20.717Z,74.60
2022-07-25T02:32:26.375Z,74.60
2022-07-25T02:33:28.971Z,74.70
2022-07-25T02:34:32.250Z,74.60
2022-07-25T02:35:34.761Z,74.70
2022-07-25T02:36:39.736Z,74.60
2022-07-25T02:37:42.498Z,74.70
2022-07-25T02:38:46.002Z,74.60
2022-07-25T02:39:48.492Z,74.60
2022-07-25T02:40:53.921Z,74.80
2022-07-25T02:41:56.259Z,75.00
2022-07-25T02:42:59.619Z,74.90
2022-07-25T02:44:05.792Z,74.90
2022-07-25T02:45:10.535Z,75.10
2022-07-25T02:46:13.156Z,75.00
2022-07-25T02:47:16.524Z,75.00
2022-07-25T02:48:19.048Z,74.90
2022-07-25T02:49:22.391Z,75.00
2022-07-25T02:50:25.430Z,74.90
2022-07-25T02:51:31.129Z,74.80
2022-07-25T02:52:34.946Z,74.90
2022-07-25T02:53:56.705Z,74.90
2022-07-25T02:54:59.844Z,74.90
2022-07-25T02:56:03.258Z,74.80
2022-07-25T02:57:08.386Z,74.80
2022-07-25T02:58:12.372Z,74.70
2022-07-25T02:59:14.751Z,74.70
2022-07-25T03:00:19.183Z,74.80
2022-07-25T03:01:21.814Z,74.70
2022-07-25T03:02:25.306Z,74.70
2022-07-25T03:03:30.011Z,74.50
2022-07-25T03:04:33.545Z,74.60
2022-07-25T03:05:36.055Z,74.80
2022-07-25T03:06:39.088Z,74.90
2022-07-25T03:07:44.511Z,75.00
2022-07-25T03:08:47.941Z,75.10
2022-07-25T03:09:50.370Z,74.90
2022-07-25T03:10:54.381Z,75.10
2022-07-25T03:11:56.826Z,75.20
2022-07-25T03:13:00.169Z,75.10
2022-07-25T03:14:03.659Z,75.10
2022-07-25T03:15:09.069Z,75.20
2022-07-25T03:16:11.541Z,75.10
2022-07-25T03:17:14.915Z,75.00
2022-07-25T03:18:17.225Z,75.10
2022-07-25T03:19:20.557Z,75.10
2022-07-25T03:20:25.485Z,75.20
2022-07-25T03:21:28.785Z,75.20
2022-07-25T03:22:31.157Z,75.40
2022-07-25T03:23:38.705Z,75.40
2022-07-25T03:24:41.095Z,75.30
2022-07-25T03:25:44.424Z,75.20
2022-07-25T03:26:46.749Z,75.40
2022-07-25T03:27:53.166Z,75.50
2022-07-25T03:28:55.582Z,75.50
2022-07-25T03:29:59.788Z,75.50
2022-07-25T03:31:02.640Z,75.50
2022-07-25T03:32:07.788Z,75.60
2022-07-25T03:33:10.292Z,75.50
2022-07-25T03:34:13.725Z,75.70
2022-07-25T03:35:16.294Z,75.60
2022-07-25T03:36:20.449Z,75.50
2022-07-25T03:37:22.785Z,75.60
2022-07-25T03:38:26.035Z,75.70
2022-07-25T03:39:31.436Z,75.80
2022-07-25T03:40:33.806Z,75.80
2022-07-25T03:41:39.773Z,75.80
2022-07-25T03:42:42.134Z,75.80
2022-07-25T03:43:45.511Z,75.90
2022-07-25T03:44:47.866Z,75.80
2022-07-25T03:45:51.315Z,75.60
2022-07-25T03:46:53.839Z,75.60
2022-07-25T03:47:57.146Z,75.50
2022-07-25T03:48:59.668Z,75.60
2022-07-25T03:50:03.005Z,75.50
2022-07-25T03:51:07.234Z,75.50
2022-07-25T03:52:11.195Z,75.50
2022-07-25T03:53:13.548Z,75.50
2022-07-25T03:54:16.911Z,75.50
2022-07-25T03:55:20.689Z,75.50
2022-07-25T03:56:26.737Z,75.50
2022-07-25T03:57:29.994Z,75.60
2022-07-25T03:58:32.345Z,75.60
2022-07-25T03:59:36.404Z,75.60
2022-07-25T04:00:38.918Z,75.60
2022-07-25T04:01:43.211Z,75.60
2022-07-25T04:02:47.953Z,75.60
2022-07-25T04:03:51.387Z,75.70
2022-07-25T04:04:57.443Z,75.80
2022-07-25T04:06:01.024Z,76.00
2022-07-25T04:07:07.146Z,75.90
2022-07-25T04:08:10.271Z,76.10
2022-07-25T04:09:15.875Z,76.10
2022-07-25T04:10:18.169Z,76.20
2022-07-25T04:11:25.377Z,76.40
2022-07-25T04:12:29.966Z,76.70
2022-07-25T04:13:33.475Z,76.70
2022-07-25T04:14:35.745Z,76.70
2022-07-25T04:15:39.009Z,76.60
2022-07-25T04:16:42.282Z,76.50
2022-07-25T04:17:45.711Z,76.40
2022-07-25T04:18:48.350Z,76.40
2022-07-25T04:19:52.790Z,76.40
2022-07-25T04:20:55.166Z,76.20
2022-07-25T04:21:58.533Z,76.20
2022-07-25T04:23:00.880Z,76.10
2022-07-25T04:24:04.776Z,76.10
2022-07-25T04:25:08.831Z,76.10
2022-07-25T04:26:12.300Z,76.20
2022-07-25T04:27:19.223Z,76.40
2022-07-25T04:28:21.747Z,76.30
2022-07-25T04:29:25.138Z,76.40
2022-07-25T04:30:27.466Z,76.40
2022-07-25T04:31:31.128Z,76.40
2022-07-25T04:32:34.309Z,76.50
2022-07-25T04:33:38.321Z,76.40
2022-07-25T04:34:40.891Z,76.60
2022-07-25T04:35:44.838Z,76.70
2022-07-25T04:36:48.274Z,76.60
2022-07-25T04:37:50.569Z,76.50
2022-07-25T04:38:54.137Z,76.40
2022-07-25T04:39:58.429Z,76.30
2022-07-25T04:41:02.009Z,76.20
2022-07-25T04:42:06.941Z,76.20
2022-07-25T04:43:13.865Z,76.20
2022-07-25T04:44:17.295Z,76.20
2022-07-25T04:45:19.642Z,76.10
2022-07-25T04:46:23.977Z,76.20
2022-07-25T04:47:28.731Z,76.20
2022-07-25T04:48:34.959Z,76.10
2022-07-25T04:49:38.384Z,76.20
2022-07-25T04:50:43.362Z,76.20
2022-07-25T04:51:46.650Z,76.20
2022-07-25T04:52:51.362Z,76.10
2022-07-25T04:53:54.838Z,76.10
2022-07-25T04:54:57.282Z,76.00
2022-07-25T04:56:00.631Z,75.90
2022-07-25T04:57:04.839Z,75.90
2022-07-25T04:58:08.331Z,75.80
2022-07-25T04:59:11.970Z,75.80
2022-07-25T05:00:18.653Z,75.80
2022-07-25T05:01:21.047Z,75.90
2022-07-25T05:02:24.859Z,75.90
2022-07-25T05:03:27.775Z,75.90
2022-07-25T05:04:31.108Z,75.80
2022-07-25T05:05:33.939Z,75.80
2022-07-25T05:06:37.213Z,75.90
2022-07-25T05:07:39.814Z,75.90
2022-07-25T05:08:43.172Z,76.10
2022-07-25T05:09:45.974Z,76.00
2022-07-25T05:10:49.257Z,76.10
2022-07-25T05:11:56.425Z,76.20
2022-07-25T05:13:00.101Z,76.10
2022-07-25T05:14:02.585Z,76.20
2022-07-25T05:15:08.937Z,76.10
2022-07-25T05:16:11.415Z,76.10
2022-07-25T05:17:16.824Z,76.00
2022-07-25T05:18:19.352Z,75.90
2022-07-25T05:19:22.760Z,75.90
2022-07-25T05:20:25.586Z,76.00
2022-07-25T05:21:28.847Z,76.10
2022-07-25T05:22:31.421Z,76.20
2022-07-25T05:23:34.738Z,76.10
2022-07-25T05:24:37.796Z,75.80
2022-07-25T05:25:41.279Z,75.80
2022-07-25T05:26:43.725Z,75.80
2022-07-25T05:27:47.134Z,75.60
2022-07-25T05:28:50.453Z,75.50
2022-07-25T05:29:53.027Z,75.30
2022-07-25T05:30:57.760Z,74.90
2022-07-25T05:32:00.273Z,74.60
2022-07-25T05:33:03.678Z,74.30
2022-07-25T05:34:07.392Z,74.00
2022-07-25T05:35:10.559Z,73.60
2022-07-25T05:36:14.342Z,73.00
2022-07-25T05:37:16.686Z,72.70
2022-07-25T05:38:20.532Z,72.50
2022-07-25T05:39:24.773Z,72.10
2022-07-25T05:40:30.398Z,71.70
2022-07-25T05:41:34.111Z,71.30
2022-07-25T05:42:36.719Z,71.00
2022-07-25T05:43:40.107Z,70.60
2022-07-25T05:44:42.539Z,70.30
2022-07-25T05:45:47.289Z,70.20
2022-07-25T05:46:51.072Z,70.10
2022-07-25T05:47:54.500Z,69.60
2022-07-25T05:48:59.453Z,69.40
2022-07-25T05:50:02.919Z,69.40
2022-07-25T05:51:06.415Z,69.40
2022-07-25T05:52:12.839Z,69.40
2022-07-25T05:53:16.535Z,69.20
2022-07-25T05:54:18.948Z,69.10
2022-07-25T05:55:22.578Z,69.20
2022-07-25T05:56:25.175Z,69.30
2022-07-25T05:57:28.775Z,69.30
2022-07-25T05:58:31.608Z,69.30
2022-07-25T05:59:35.012Z,69.20
2022-07-25T06:00:40.590Z,69.30
2022-07-25T06:01:43.168Z,69.30
2022-07-25T06:02:48.186Z,69.30
2022-07-25T06:03:50.499Z,69.20
2022-07-25T06:04:53.773Z,69.00
2022-07-25T06:05:56.931Z,69.00
2022-07-25T06:07:00.221Z,68.90
2022-07-25T06:08:02.577Z,68.70
2022-07-25T06:09:08.580Z,68.50
2022-07-25T06:10:12.438Z,68.40
2022-07-25T06:11:14.727Z,68.20
2022-07-25T06:12:18.140Z,68.20
2022-07-25T06:13:21.000Z,67.60
2022-07-25T06:14:25.998Z,67.60
2022-07-25T06:15:30.279Z,67.70
2022-07-25T06:16:32.664Z,67.30
2022-07-25T06:17:36.309Z,67.20
2022-07-25T06:18:40.030Z,67.00
2022-07-25T06:19:43.391Z,66.90
2022-07-25T06:20:45.686Z,66.70
2022-07-25T06:21:48.993Z,66.50
2022-07-25T06:22:53.237Z,66.50
2022-07-25T06:23:57.994Z,66.20
2022-07-25T06:25:02.906Z,66.20
2022-07-25T06:26:08.722Z,66.10
2022-07-25T06:27:14.988Z,65.70
2022-07-25T06:28:20.923Z,65.50
2022-07-25T06:29:24.225Z,65.20
2022-07-25T06:30:26.535Z,65.10
2022-07-25T06:31:29.987Z,64.90
2022-07-25T06:32:32.611Z,64.50
2022-07-25T06:33:35.863Z,64.40
2022-07-25T06:34:39.834Z,64.20
2022-07-25T06:35:43.245Z,63.60
2022-07-25T06:36:46.253Z,63.90
2022-07-25T06:37:49.737Z,63.90
2022-07-25T06:38:52.098Z,64.00
2022-07-25T06:39:55.662Z,64.20
2022-07-25T06:40:58.967Z,64.30
2022-07-25T06:42:04.147Z,64.20
2022-07-25T06:43:10.563Z,64.20
2022-07-25T06:44:13.033Z,64.40
2022-07-25T06:45:18.742Z,64.60
2022-07-25T06:46:23.233Z,64.60
2022-07-25T06:47:26.821Z,64.70
2022-07-25T06:48:30.437Z,64.90
2022-07-25T06:49:33.722Z,64.90
2022-07-25T06:50:37.550Z,65.30
2022-07-25T06:51:41.041Z,65.50
2022-07-25T06:52:43.618Z,65.70
2022-07-25T06:53:46.932Z,65.90
2022-07-25T06:54:52.633Z,66.20
2022-07-25T06:55:56.073Z,66.50
2022-07-25T06:56:59.684Z,66.70
2022-07-25T06:58:02.222Z,67.00
2022-07-25T06:59:07.616Z,67.00
2022-07-25T07:00:14.364Z,67.20
2022-07-25T07:01:19.940Z,67.40
2022-07-25T07:02:23.408Z,67.70
2022-07-25T07:03:25.714Z,67.80
2022-07-25T07:04:31.214Z,68.00
2022-07-25T07:05:36.562Z,68.00
2022-07-25T07:06:39.968Z,68.20
2022-07-25T07:07:47.457Z,68.30
2022-07-25T07:08:51.107Z,68.40
2022-07-25T07:09:53.488Z,68.50
2022-07-25T07:10:56.839Z,68.60
2022-07-25T07:11:59.267Z,68.70
2022-07-25T07:13:07.955Z,68.80
2022-07-25T07:14:14.441Z,69.20
2022-07-25T07:15:17.665Z,69.40
2022-07-25T07:16:20.993Z,69.40
2022-07-25T07:17:23.482Z,69.70
2022-07-25T07:18:27.440Z,69.70
2022-07-25T07:19:30.832Z,69.80
2022-07-25T07:20:33.367Z,69.90
2022-07-25T07:21:38.013Z,70.10
2022-07-25T07:22:48.388Z,70.30
2022-07-25T07:23:53.378Z,70.30
2022-07-25T07:24:56.257Z,70.40
2022-07-25T07:26:00.567Z,70.50
2022-07-25T07:27:02.862Z,70.50
2022-07-25T07:28:07.401Z,70.60
2022-07-25T07:29:09.989Z,70.60
2022-07-25T07:30:14.777Z,70.70
2022-07-25T07:31:19.050Z,70.70
2022-07-25T07:32:21.576Z,70.80
2022-07-25T07:33:27.397Z,70.70
2022-07-25T07:34:29.678Z,70.60
2022-07-25T07:35:34.843Z,70.50
2022-07-25T07:36:39.849Z,70.10
2022-07-25T07:37:43.956Z,69.80
2022-07-25T07:38:46.293Z,70.10
2022-07-25T07:39:50.174Z,70.20
2022-07-25T07:40:54.004Z,70.20
2022-07-25T07:41:56.306Z,70.10
2022-07-25T07:43:02.473Z,70.00
2022-07-25T07:44:05.822Z,69.80
2022-07-25T07:45:14.942Z,69.80
2022-07-25T07:46:18.341Z,69.70
2022-07-25T07:47:21.700Z,69.60
2022-07-25T07:48:27.524Z,69.60
2022-07-25T07:49:37.236Z,69.50
2022-07-25T07:50:41.117Z,69.30
2022-07-25T07:51:47.823Z,68.90
2022-07-25T07:52:52.667Z,69.10
2022-07-25T07:54:15.790Z,69.00
2022-07-25T07:55:39.770Z,68.90
2022-07-25T07:56:43.162Z,69.00
2022-07-25T07:57:45.537Z,69.20
2022-07-25T07:58:49.163Z,68.80
2022-07-25T07:59:54.422Z,68.80
2022-07-25T08:00:57.672Z,68.70
2022-07-25T08:02:00.971Z,68.60
2022-07-25T08:03:04.254Z,68.50
2022-07-25T08:04:07.878Z,68.50
2022-07-25T08:05:10.504Z,68.50
2022-07-25T08:06:13.843Z,68.40
2022-07-25T08:07:19.871Z,68.30
2022-07-25T08:08:25.684Z,68.40
2022-07-25T08:09:32.786Z,68.50
2022-07-25T08:10:37.426Z,68.30
2022-07-25T08:11:40.951Z,68.30
2022-07-25T08:12:43.343Z,67.90
2022-07-25T08:13:46.764Z,67.50
2022-07-25T08:14:49.093Z,66.90
2022-07-25T08:15:55.966Z,66.30
2022-07-25T08:17:00.774Z,65.40
2022-07-25T08:18:04.841Z,65.00
2022-07-25T08:19:20.573Z,64.60
2022-07-25T08:20:39.664Z,64.10
2022-07-25T08:21:43.128Z,63.50
2022-07-25T08:22:56.677Z,63.50
2022-07-25T08:24:02.775Z,63.20
2022-07-25T08:25:10.125Z,63.20
2022-07-25T08:26:14.241Z,63.30
2022-07-25T08:27:16.520Z,63.30
2022-07-25T08:28:20.637Z,63.10
2022-07-25T08:29:28.067Z,63.30
2022-07-25T08:30:31.821Z,63.60
2022-07-25T08:31:34.432Z,63.90
2022-07-25T08:32:52.925Z,63.90
2022-07-25T08:33:55.229Z,64.10
2022-07-25T08:34:59.234Z,63.80
2022-07-25T08:36:02.681Z,63.40
2022-07-25T08:37:05.226Z,63.30
2022-07-25T08:38:11.584Z,63.30
2022-07-25T08:39:14.308Z,63.40
2022-07-25T08:40:23.269Z,63.20
2022-07-25T08:41:26.799Z,63.60
2022-07-25T08:42:29.956Z,63.70
2022-07-25T08:43:37.841Z,63.90
2022-07-25T08:44:46.825Z,63.80
2022-07-25T08:45:52.497Z,63.80
2022-07-25T08:46:56.556Z,63.90
2022-07-25T08:48:00.254Z,63.90
2022-07-25T08:49:03.390Z,64.00
2022-07-25T08:50:10.664Z,63.90
2022-07-25T08:51:14.032Z,64.10
2022-07-25T08:52:17.803Z,64.50
2022-07-25T08:53:39.153Z,64.60
2022-07-25T08:54:48.244Z,64.90
2022-07-25T08:55:50.615Z,65.20
2022-07-25T08:56:56.363Z,65.30
2022-07-25T08:58:00.269Z,65.40
2022-07-25T08:59:05.795Z,65.50
2022-07-25T09:00:10.545Z,65.20
2022-07-25T09:01:14.411Z,65.20
2022-07-25T09:02:17.003Z,65.30
2022-07-25T09:03:20.450Z,65.00
2022-07-25T09:04:27.211Z,64.80
2022-07-25T09:05:33.344Z,64.60
2022-07-25T09:06:51.528Z,64.50
2022-07-25T09:07:56.638Z,63.70
2022-07-25T09:09:04.675Z,63.50
2022-07-25T09:10:17.964Z,62.80
2022-07-25T09:11:31.929Z,62.30
2022-07-25T09:12:35.172Z,62.00
2022-07-25T09:13:40.250Z,61.90
2022-07-25T09:14:44.498Z,61.60
2022-07-25T09:15:52.128Z,61.30
2022-07-25T09:16:55.619Z,61.20
2022-07-25T09:18:02.458Z,61.10
2022-07-25T09:19:15.003Z,61.00
2022-07-25T09:20:18.648Z,60.80
2022-07-25T09:21:21.971Z,60.90
2022-07-25T09:22:25.474Z,60.70
2022-07-25T09:23:31.824Z,60.30
2022-07-25T09:24:36.811Z,60.20
2022-07-25T09:25:39.645Z,59.90
2022-07-25T09:26:49.114Z,59.60
2022-07-25T09:27:54.825Z,59.20
2022-07-25T09:29:00.964Z,57.90
2022-07-25T09:30:15.038Z,57.10
2022-07-25T09:31:18.925Z,57.60
2022-07-25T09:32:25.341Z,56.60
2022-07-25T09:33:30.384Z,57.30
2022-07-25T09:34:36.200Z,56.90
2022-07-25T09:35:41.759Z,56.60
2022-07-25T09:36:53.473Z,56.40
2022-07-25T09:38:07.395Z,55.60
2022-07-25T09:39:09.920Z,55.60
2022-07-25T09:40:16.493Z,55.00
2022-07-25T09:41:18.861Z,54.30
2022-07-25T09:42:26.643Z,53.90
2022-07-25T09:43:40.282Z,54.10
2022-07-25T09:44:45.085Z,53.70
2022-07-25T09:45:52.094Z,53.30
2022-07-25T09:46:54.618Z,53.50
2022-07-25T09:48:03.084Z,53.40
2022-07-25T09:49:05.431Z,53.60
2022-07-25T09:50:10.468Z,53.70
2022-07-25T09:51:13.905Z,53.90
2022-07-25T09:52:19.049Z,54.00
2022-07-25T09:53:22.501Z,54.40
2022-07-25T09:54:24.872Z,54.90
2022-07-25T09:55:30.752Z,55.40
2022-07-25T09:56:35.778Z,55.60
2022-07-25T09:57:41.735Z,56.40
2022-07-25T09:58:44.517Z,56.50
2022-07-25T09:59:50.248Z,57.00
2022-07-25T10:00:57.227Z,57.20
2022-07-25T10:02:09.613Z,57.70
2022-07-25T10:03:30.444Z,58.20
2022-07-25T10:04:57.343Z,58.20
2022-07-25T10:06:12.139Z,58.60
2022-07-25T10:07:19.447Z,58.20
2022-07-25T10:08:24.092Z,58.30
2022-07-25T10:09:26.534Z,58.00
2022-07-25T10:10:37.625Z,58.00
2022-07-25T10:11:41.574Z,58.00
2022-07-25T10:13:02.475Z,57.90
2022-07-25T10:14:13.412Z,58.10
2022-07-25T10:15:18.013Z,57.90
2022-07-25T10:16:23.975Z,57.80
2022-07-25T10:17:26.513Z,57.30
2022-07-25T10:18:34.483Z,57.30
2022-07-25T10:19:45.974Z,56.90
2022-07-25T10:20:57.066Z,56.90
2022-07-25T10:21:59.624Z,57.20
2022-07-25T10:23:03.682Z,57.40
2022-07-25T10:24:11.001Z,57.70
2022-07-25T10:25:19.249Z,57.60
2022-07-25T10:26:25.732Z,57.70
2022-07-25T10:27:28.057Z,57.80
2022-07-25T10:28:44.745Z,57.80
2022-07-25T10:29:53.677Z,58.00
2022-07-25T10:30:59.686Z,58.30
2022-07-25T10:32:10.776Z,58.30
2022-07-25T10:33:15.530Z,58.20
2022-07-25T10:34:30.779Z,58.30
2022-07-25T10:35:34.886Z,58.20
2022-07-25T10:36:46.927Z,58.30
2022-07-25T10:37:52.417Z,58.10
2022-07-25T10:39:01.204Z,58.20
2022-07-25T10:40:07.398Z,57.90
2022-07-25T10:41:15.268Z,57.10
2022-07-25T10:42:23.951Z,57.10
2022-07-25T10:43:29.149Z,56.80
2022-07-25T10:44:43.312Z,56.50
2022-07-25T10:45:54.030Z,55.90
2022-07-25T10:47:09.827Z,55.60
2022-07-25T10:48:23.282Z,55.40
2022-07-25T10:49:32.147Z,55.30
2022-07-25T10:50:54.477Z,55.50
2022-07-25T10:52:03.273Z,55.80
2022-07-25T10:53:09.184Z,55.90
2022-07-25T10:54:17.380Z,55.70
2022-07-25T10:55:24.675Z,56.30
2022-07-25T10:56:30.029Z,56.40
2022-07-25T10:57:34.442Z,56.50
2022-07-25T10:58:51.656Z,56.80
2022-07-25T10:59:54.336Z,57.10
2022-07-25T11:00:59.923Z,57.70
2022-07-25T11:02:04.444Z,57.80
2022-07-25T11:03:06.869Z,58.20
2022-07-25T11:04:17.155Z,58.80
2022-07-25T11:05:19.510Z,59.50
2022-07-25T11:06:34.512Z,59.80
2022-07-25T11:07:37.828Z,59.90
2022-07-25T11:08:40.977Z,59.90
2022-07-25T11:09:45.472Z,60.40
2022-07-25T11:10:52.549Z,60.50
2022-07-25T11:11:59.716Z,60.70
2022-07-25T11:13:09.302Z,60.70
2022-07-25T11:14:20.889Z,61.40
2022-07-25T11:15:25.755Z,61.70
2022-07-25T11:16:28.365Z,62.40
2022-07-25T11:17:34.480Z,62.20
2022-07-25T11:18:42.659Z,62.80
2022-07-25T11:19:56.368Z,63.40
2022-07-25T11:21:05.785Z,63.80
2022-07-25T11:22:12.446Z,63.90
2022-07-25T11:23:22.398Z,64.30
2022-07-25T11:24:37.730Z,64.60
2022-07-25T11:25:42.219Z,64.80
2022-07-25T11:26:50.762Z,65.00
2022-07-25T11:27:58.985Z,65.00
2022-07-25T11:29:04.376Z,65.50
2022-07-25T11:30:09.522Z,65.60
2022-07-25T11:31:14.562Z,65.60
2022-07-25T11:32:18.166Z,65.60
2022-07-25T11:33:20.656Z,66.00
2022-07-25T11:34:26.414Z,65.80
2022-07-25T11:35:32.055Z,66.10
2022-07-25T11:36:35.681Z,66.20
2022-07-25T11:37:40.932Z,65.90
2022-07-25T11:38:49.391Z,65.80
2022-07-25T11:39:52.953Z,65.20
2022-07-25T11:40:55.924Z,65.20
2022-07-25T11:42:05.248Z,64.60
2022-07-25T11:43:08.587Z,64.20
2022-07-25T11:44:13.276Z,63.80
2022-07-25T11:45:18.994Z,63.60
2022-07-25T11:46:22.416Z,63.50
2022-07-25T11:47:28.099Z,63.10
2022-07-25T11:48:35.122Z,63.30
2022-07-25T11:49:57.986Z,63.80
2022-07-25T11:51:18.610Z,64.10
2022-07-25T11:52:25.357Z,64.10
2022-07-25T11:53:29.320Z,64.60
2022-07-25T11:54:33.924Z,65.10
2022-07-25T11:55:40.929Z,65.30
2022-07-25T11:56:45.632Z,65.90
2022-07-25T11:57:49.096Z,66.20
2022-07-25T11:58:58.965Z,65.80
2022-07-25T12:00:11.505Z,65.10
2022-07-25T12:01:17.929Z,65.10
2022-07-25T12:02:26.643Z,64.60
2022-07-25T12:03:38.620Z,63.80
2022-07-25T12:04:55.773Z,63.40
2022-07-25T12:05:59.083Z,63.00
2022-07-25T12:07:06.737Z,62.30
2022-07-25T12:08:10.835Z,62.20
2022-07-25T12:09:19.114Z,62.10
2022-07-25T12:10:32.555Z,62.00
2022-07-25T12:11:34.906Z,61.60
2022-07-25T12:12:50.539Z,61.50
2022-07-25T12:14:05.410Z,61.30
2022-07-25T12:15:14.094Z,60.70
2022-07-25T12:16:18.737Z,59.80
2022-07-25T12:17:22.094Z,59.10
2022-07-25T12:18:24.882Z,58.80
2022-07-25T12:19:28.284Z,58.90
2022-07-25T12:20:33.503Z,59.10
2022-07-25T12:21:36.930Z,59.20
2022-07-25T12:22:39.282Z,59.10
2022-07-25T12:23:44.448Z,59.10
2022-07-25T12:24:46.795Z,59.20
2022-07-25T12:25:53.421Z,59.20
2022-07-25T12:26:56.733Z,59.10
2022-07-25T12:28:01.662Z,58.90
2022-07-25T12:29:04.342Z,58.90
2022-07-25T12:30:12.122Z,58.90
2022-07-25T12:31:18.512Z,58.80
2022-07-25T12:32:23.158Z,58.50
2022-07-25T12:33:26.438Z,58.40
2022-07-25T12:34:29.843Z,58.40
2022-07-25T12:35:37.778Z,58.00
2022-07-25T12:36:44.953Z,57.40
2022-07-25T12:37:47.650Z,57.10
2022-07-25T12:38:50.994Z,56.90
2022-07-25T12:39:53.677Z,58.10
2022-07-25T12:40:57.469Z,56.90
2022-07-25T12:41:59.852Z,56.50
2022-07-25T12:43:03.340Z,56.00
2022-07-25T12:44:07.636Z,56.50
2022-07-25T12:45:13.047Z,56.10
2022-07-25T12:46:16.559Z,55.40
2022-07-25T12:47:19.421Z,54.60
2022-07-25T12:48:26.382Z,54.70
2022-07-25T12:49:32.118Z,54.60
2022-07-25T12:50:38.025Z,54.90
2022-07-25T12:51:41.634Z,54.60
2022-07-25T12:52:46.764Z,55.00
2022-07-25T12:53:50.196Z,55.00
2022-07-25T12:54:53.154Z,54.70
2022-07-25T12:55:56.743Z,54.40
2022-07-25T12:56:59.105Z,54.00
2022-07-25T12:58:02.531Z,54.90
2022-07-25T12:59:06.146Z,54.10
2022-07-25T13:00:14.107Z,54.00
2022-07-25T13:01:17.645Z,54.10
2022-07-25T13:02:22.765Z,54.00
2022-07-25T13:03:26.114Z,54.10
2022-07-25T13:04:28.830Z,54.40
2022-07-25T13:05:34.227Z,54.70
2022-07-25T13:06:38.971Z,54.70
2022-07-25T13:07:42.578Z,54.70
2022-07-25T13:08:46.111Z,55.10
2022-07-25T13:09:49.439Z,55.50
2022-07-25T13:10:52.832Z,55.30
2022-07-25T13:11:56.048Z,55.40
2022-07-25T13:12:59.392Z,55.30
2022-07-25T13:14:02.697Z,55.30
2022-07-25T13:15:06.382Z,54.90
2022-07-25T13:16:11.313Z,55.00
2022-07-25T13:17:13.762Z,54.80
2022-07-25T13:18:17.487Z,54.80
2022-07-25T13:19:20.169Z,54.60
2022-07-25T13:20:24.141Z,54.70
2022-07-25T13:21:26.503Z,54.60
2022-07-25T13:22:30.842Z,54.70
2022-07-25T13:23:34.805Z,54.60
2022-07-25T13:24:37.571Z,55.10
2022-07-25T13:25:43.470Z,54.60
2022-07-25T13:26:46.402Z,53.70
2022-07-25T13:27:51.902Z,53.80
2022-07-25T13:28:59.431Z,53.90
2022-07-25T13:30:03.135Z,53.60
2022-07-25T13:31:07.884Z,54.00
2022-07-25T13:32:15.383Z,53.60
2022-07-25T13:33:19.000Z,53.80
2022-07-25T13:34:21.428Z,53.80
2022-07-25T13:35:31.647Z,54.10
2022-07-25T13:36:38.579Z,53.90
2022-07-25T13:37:41.937Z,54.10
2022-07-25T13:38:46.642Z,54.10
2022-07-25T13:39:50.106Z,54.40
2022-07-25T13:40:59.059Z,54.50
2022-07-25T13:42:05.052Z,54.70
2022-07-25T13:43:08.514Z,54.40
2022-07-25T13:44:10.832Z,54.70
2022-07-25T13:45:14.161Z,54.60
2022-07-25T13:46:16.743Z,54.70
2022-07-25T13:47:22.949Z,54.80
2022-07-25T13:48:30.744Z,55.00
2022-07-25T13:49:34.628Z,54.80
2022-07-25T13:50:38.314Z,54.70
2022-07-25T13:51:40.820Z,54.50
2022-07-25T13:52:46.282Z,54.80
2022-07-25T13:53:48.730Z,54.50
2022-07-25T13:54:52.251Z,54.30
2022-07-25T13:55:56.203Z,54.30
2022-07-25T13:57:00.089Z,54.60
2022-07-25T13:58:03.742Z,54.70
2022-07-25T13:59:06.127Z,54.80
2022-07-25T14:00:11.900Z,54.90
2022-07-25T14:01:14.272Z,54.90
2022-07-25T14:02:17.730Z,55.30
2022-07-25T14:03:21.684Z,55.40
2022-07-25T14:04:25.026Z,55.40
2022-07-25T14:05:28.367Z,55.10
2022-07-25T14:06:31.544Z,55.30
2022-07-25T14:07:36.047Z,55.50
2022-07-25T14:08:41.508Z,55.70
2022-07-25T14:09:44.790Z,55.80
2022-07-25T14:10:48.144Z,56.10
2022-07-25T14:11:50.494Z,55.90
2022-07-25T14:12:54.075Z,55.80
2022-07-25T14:13:56.442Z,56.00
2022-07-25T14:14:59.865Z,55.70
2022-07-25T14:16:02.342Z,55.40
2022-07-25T14:17:06.251Z,55.20
2022-07-25T14:18:09.775Z,54.80
2022-07-25T14:19:14.432Z,54.70
2022-07-25T14:20:20.572Z,54.60
2022-07-25T14:21:23.279Z,54.40
2022-07-25T14:22:26.710Z,54.40
2022-07-25T14:23:30.206Z,54.60
2022-07-25T14:24:33.826Z,54.50
2022-07-25T14:25:38.857Z,54.60
2022-07-25T14:26:42.329Z,54.50
2022-07-25T14:27:45.236Z,54.90
2022-07-25T14:28:48.618Z,55.10
2022-07-25T14:29:54.016Z,54.70
2022-07-25T14:30:57.405Z,54.70
2022-07-25T14:32:02.912Z,54.20
2022-07-25T14:33:05.321Z,54.20
2022-07-25T14:34:10.811Z,54.10
2022-07-25T14:35:17.823Z,54.20
2022-07-25T14:36:23.712Z,54.40
2022-07-25T14:37:27.174Z,54.70
2022-07-25T14:38:32.078Z,54.90
2022-07-25T14:39:35.974Z,55.20
2022-07-25T14:40:41.630Z,55.50
2022-07-25T14:41:47.286Z,55.70
2022-07-25T14:42:51.762Z,56.00
2022-07-25T14:43:55.087Z,56.20
2022-07-25T14:44:57.372Z,56.50
2022-07-25T14:46:00.777Z,56.30
2022-07-25T14:47:03.220Z,56.20
2022-07-25T14:48:07.525Z,56.30
2022-07-25T14:49:14.261Z,56.20
2022-07-25T14:50:19.113Z,55.90
2022-07-25T14:51:22.649Z,56.10
2022-07-25T14:52:24.977Z,56.10
2022-07-25T14:53:28.342Z,55.90
2022-07-25T14:54:30.864Z,55.80
2022-07-25T14:55:34.258Z,55.80
2022-07-25T14:56:37.827Z,55.80
2022-07-25T14:57:40.209Z,55.90
2022-07-25T14:58:43.526Z,55.90
2022-07-25T14:59:45.786Z,55.80
2022-07-25T15:00:49.221Z,55.90
2022-07-25T15:01:55.167Z,56.20
2022-07-25T15:02:58.363Z,56.30
2022-07-25T15:04:01.708Z,56.70
2022-07-25T15:05:07.552Z,56.10
2022-07-25T15:06:12.497Z,56.20
2022-07-25T15:07:14.849Z,56.30
2022-07-25T15:08:18.307Z,55.80
2022-07-25T15:09:22.428Z,55.70
2022-07-25T15:10:25.739Z,55.60